AirNav   BOSE A20 Aviation Headset
 
 599 users online  

S31 Lopez Island Airport
Lopez, Washington, USA

GOING TO LOPEZ?


FAA INFORMATION EFFECTIVE 24 MAY 2018

Location

FAA Identifier: S31
Lat/Long: 48-29-02.1000N / 122-56-15.6000W
48-29.035000N / 122-56.260000W
48.4839167 / -122.9376667
(estimated)
Elevation: 208.8 ft. / 63.6 m (surveyed)
Variation: 21E (1985)
From city: 3 miles N of LOPEZ, WA
Time zone: UTC -7 (UTC -8 during Standard Time)
Zip code: 98261

Airport Operations

Airport use: Open to the public
Activation date: 06/1963
Control tower: no
ARTCC: SEATTLE CENTER
FSS: SEATTLE FLIGHT SERVICE STATION
NOTAMs facility: SEA (NOTAM-D service available)
Attendance: UNATNDD
Wind indicator: lighted
Segmented circle: yes
Beacon: white-green (lighted land airport)
Operates sunset to sunrise.

Airport Communications

CTAF: 128.25
WX ASOS at FHR (4 nm NW): 135.675 (360-378-8491)
WX AWOS-3 at ORS (14 nm N): 135.425 (360-376-6045)
WX AWOS-3 at OKH (17 nm SE): 132.775 (360-675-8431)

Nearby radio navigation aids

VOR radial/distance  VOR name  Freq  Var
CVVr310/16.7PENN COVE VOR/DME117.2019E
YYJr107/26.1VICTORIA VOR/DME113.7017E
HUHr187/31.1WHATCOM VORTAC113.0020E
YVRr150/36.6VANCOUVER VOR/DME115.9017E

 
NDB name  Hdg/Dist  Freq  Var  ID
FRIDAY HARBOR099/3.828417EFHR ..-. .... .-.
SKAGIT/BAY VIEW257/20.724016EBVS -... ...- ...

Airport Services

Parking: tiedowns
Airframe service: NONE
Powerplant service: NONE
Bottled oxygen: NONE
Bulk oxygen: NONE

Runway Information

Runway 16/34

Dimensions: 2905 x 61 ft. / 885 x 19 m
Surface: asphalt/grooved, in good condition
Weight bearing capacity: 
Single wheel: 12.5
Runway edge lights: medium intensity
TWY MARKED WITH REFLECTORS.
RUNWAY 16  RUNWAY 34
Latitude: 48-29.273623N48-28.795922N
Longitude: 122-56.262050W122-56.259615W
Elevation: 208.8 ft.162.9 ft.
Gradient: 1.6%1.6% UP
Traffic pattern: rightleft
Markings: basic, in good conditionbasic, in good condition
Visual slope indicator: 2-light PAPI on left (4.00 degrees glide path)2-light PAPI on left (4.00 degrees glide path)
Runway end identifier lights: yesyes
Touchdown point: yes, no lightsyes, no lights
Obstructions: 62 ft. trees, 1200 ft. from runway, 16:1 slope to clear60 ft. trees, 900 ft. from runway, 11:1 slope to clear

Airport Ownership and Management from official FAA records

Ownership: Publicly-owned
Owner: PORT OF LOPEZ
PO BOX 907
LOPEZ, WA 98261
Phone 360-468-4116
Manager: HELEN COSGROVE
PO BOX 907
LOPEZ, WA 98261
Phone 360-468-4116

Airport Operational Statistics

Aircraft based on the field: 24
Single engine airplanes: 23
Multi engine airplanes: 1
    
Aircraft operations: avg 27/day *
67% transient general aviation
25% air taxi
8% local general aviation
* for 12-month period ending 31 December 2015

Additional Remarks

RY 16/34 SOFT SHOULDERS & THLDS.
RY 16 +200 FT TREES 1,320 FT NORTH OF THLD.

Instrument Procedures

There are no published instrument procedures at S31.

Some nearby airports with instrument procedures:

KFHR - Friday Harbor Airport (4 nm NW)
KORS - Orcas Island Airport (14 nm N)
KNUW - Whidbey Island Naval Air Station (Ault Field) (14 nm SE)
KOKH - AJ Eisenberg Airport (17 nm SE)
KBVS - Skagit Regional Airport (21 nm E)
 
Loc | Ops | Rwys | IFR | FBO | Links
Com | Nav | Svcs | Stats | Notes

AirNav Hotels Sweepstakes
 
Area around S31 (Lopez Island Airport)
 
Road maps at: MapQuest Bing Google
 
Aerial photo
WARNING: Photo may not be current or correct
Aerial photo of S31 (Lopez Island Airport)
Photo by Peter Sauerwein
Photo taken 22-Jun-2011
looking north.

Do you have a better or more recent aerial photo of Lopez Island Airport that you would like to share? If so, please send us your photo.

 
Sectional chart

 
Airport distance calculator
Flying to Lopez Island Airport? Find the distance to fly.

From to S31

Sunrise and sunset
Times for 25-May-2018
 Local
(UTC-7)
 Zulu
(UTC)
Morning civil twilight04:4111:41
Sunrise05:2112:21
Sunset20:5703:57
Evening civil twilight21:3604:36

Current date and time
Zulu (UTC)  25-May-2018 11:13:58
Local (UTC-7)  25-May-2018 04:13:58
 
METAR
KFHR 
4nm NW 
251053Z AUTO 24006KT 10SM BKN070 10/07 A3002 RMK AO2 SLP164 T01000072 TSNO
74S 
11nm E 
SuperAWOS
251036Z AUTO 16008KT 10SM 10/09 A3003
CWZO 
12nm W 
251000Z AUTO 16007KT RMK AO1
KORS 
13nm N 
251055Z AUTO 19011KT 10SM BKN070 11/09 A2999 RMK AO2
CWYJ 
14nm W 
251000Z AUTO 24004KT 10/05 RMK AO1 SLP158 T00950053 58002
KNUW 
14nm SE 
251056Z 24013G17KT 10SM BKN070 12/08 A3007 RMK AO2 SLP182 T01170083 $
CWLM 
16nm W 
251000Z AUTO 24012G17KT 10/07 RMK AO1 PK WND 24017/0957 SLP159 T01000071 58002
CYWH 
16nm W 
250400Z 24014KT 15SM SCT060 BKN110 BKN250 13/08 A2999 RMK SC4AC1CI2 LAST STFD OBS/NEXT 251300 UTC SLP157
CWEZ 
17nm N 
251000Z AUTO 22009KT 11/08 RMK AO1 SLP152 T01120075 58004
CWPF 
19nm W 
251045Z AUTO 22011KT 12/06 RMK AO1 T01200055
TAF
KNUW 
14nm SE 
2507/2607 25008G18KT 9999 FEW025 SCT060 SCT220 QNH2999INS TEMPO 2510/2516 25012G22KT 9000 BR MIFG BKN010 OVC025 BECMG 2523/2600 25018G28KT 9999 FEW040 QNH2994INS TEMPO 2601/2607 25008G18KT T10/2512Z T16/2522Z FS30037
CYWH 
16nm W 
241738Z 2418/2504 23015KT P6SM FEW010 FEW140 SCT230 FM250300 24015KT P6SM BKN080 RMK NXT FCST BY 250000Z
NOTAMs
Click for the latest NOTAMs
NOTAMs are issued by the DoD/FAA and will open in a separate window not controlled by AirNav.

 

 
 

Would you like to see your business listed on this page?

 If your business provides an interesting product or service to pilots, flight crews, aircraft, or users of the Lopez Island Airport, you should consider listing it here.  To start the listing process, click on the button below
 
Add a business
 

Other Pages about Lopez Island Airport

Update a link
 
Copyright © AirNav, LLC. All rights reserved. Privacy Policy  Contact